Flight Track Log - Related Links

Times and Time Zones

All times are in EDT time to prevent confusion due to time zone crossing. See the AAL832 flight status page for this flight to view local times or setup timezone preferences in your user account.

Time Position Orientation Groundspeed Altitude Reporting Facility
EDT Latitude Longitude Course Direction KTS MPH feet Rate Location/Type
Sun 05:58:24 PM 41.9833 -87.8667 157° South 172 198 2,100  Level Chicago TRACON
Sun 05:59:18 PM 41.9333 -87.8333 154° Southeast 216 249 4,000 2,955 Climbing Chicago TRACON
Sun 06:00:00 PM 41.7712 -87.7836 180° South  Level Estimated
Sun 06:01:00 PM 41.6659 -87.7223 180° South  Level Estimated
Sun 06:01:43 PM 41.7719 -87.8894 195° South 284 327 11,900  Level Chicago Center
Sun 06:02:00 PM 41.5606 -87.6613 176° South  Level Estimated
Sun 06:02:46 PM 41.6908 -87.8867 179° South 290 334 14,800  Level Chicago Center
Sun 06:03:00 PM 41.4553 -87.6004 189° South  Level Estimated
Sun 06:03:48 PM 41.5794 -87.8817 178° South 344 396 16,700  Level Chicago Center
Sun 06:04:00 PM 41.3507 -87.5402 157° South  Level Estimated
Sun 06:04:50 PM 41.4728 -87.8786 179° South 372 428 19,200  Level Chicago Center
Sun 06:05:52 PM 41.3603 -87.8797 180° South 394 453 21,500 2,160 Climbing Chicago Center
Sun 06:06:55 PM 41.2453 -87.8914 184° South 408 470 23,700 1,984 Climbing Chicago Center
Sun 06:07:56 PM 41.1272 -87.8881 179° South 422 486 25,600 1,951 Climbing Chicago Center
Sun 06:08:58 PM 41.0069 -87.8847 179° South 430 495 27,700 1,887 Climbing Chicago Center
Sun 06:10:00 PM 40.8850 -87.8811 179° South 436 502 29,500 2,081 Climbing Chicago Center
Sun 06:11:02 PM 40.7392 -87.8767 179° South 438 504 32,000 2,129 Climbing Chicago Center
Sun 06:12:04 PM 40.6233 -87.8536 171° South 427 491 33,900 1,887 Climbing Chicago Center
Sun 06:13:06 PM 40.5117 -87.8239 169° South 415 478 35,900 1,920 Climbing Chicago Center
Sun 06:14:09 PM 40.4047 -87.7928 168° South 403 464 37,900 1,344 Climbing Chicago Center
Sun 06:15:11 PM 40.2994 -87.7661 169° South 390 449 38,700 541 Climbing Chicago Center
Sun 06:16:11 PM 40.1800 -87.7339 168° South 398 458 39,000 97 Climbing Indianapolis Center
Sun 06:18:17 PM 39.9536 -87.6719 168° South 421 484 39,000  Level Chicago Center
Sun 06:19:17 PM 39.8369 -87.6400 168° South 422 486 39,000  Level Indianapolis Center
Sun 06:20:19 PM 39.6994 -87.6047 169° South 423 487 39,000  Level Indianapolis Center
Sun 06:21:21 PM 39.5861 -87.5742 168° South 421 484 39,000  Level Indianapolis Center
Sun 06:22:23 PM 39.4708 -87.5419 168° South 423 487 39,000  Level Indianapolis Center
Sun 06:23:25 PM 39.3558 -87.5114 168° South 424 488 39,000  Level Indianapolis Center
Sun 06:24:27 PM 39.2414 -87.4811 168° South 424 488 39,000  Level Indianapolis Center
Sun 06:25:29 PM 39.1019 -87.4447 169° South 427 491 39,000  Level Indianapolis Center
Sun 06:26:31 PM 38.9792 -87.4111 168° South 428 493 39,000  Level Indianapolis Center
Sun 06:27:33 PM 38.8617 -87.3797 168° South 429 494 39,000  Level Indianapolis Center
Sun 06:28:35 PM 38.7442 -87.3483 168° South 430 495 39,000  Level Indianapolis Center
Sun 06:29:37 PM 38.6261 -87.3186 169° South 431 496 39,000  Level Indianapolis Center
Sun 06:31:00 PM 38.4714 -87.2761 168° South  Level FlightAware Approximate
Sun 06:31:41 PM 38.3900 -87.2572 168° South 434 499 39,000  Level Indianapolis Center
Sun 06:33:00 PM 38.2428 -87.2163 168° South  Level FlightAware Approximate
Sun 06:33:45 PM 38.1319 -87.1906 168° South 438 504 39,000  Level Indianapolis Center
Sun 06:35:00 PM 37.9925 -87.1504 167° South  Level FlightAware Approximate
Sun 06:35:49 PM 37.8933 -87.1272 167° South 438 504 39,000  Level Indianapolis Center
Sun 06:36:51 PM 37.7725 -87.0975 169° South 441 507 39,000  Level Indianapolis Center
Sun 06:37:53 PM 37.6283 -87.0597 168° South 440 506 39,000  Level Indianapolis Center
Sun 06:38:44 PM 37.5269 -87.0386 171° South 445 512 39,000  Level Memphis Center
Sun 06:39:44 PM 37.4075 -87.0044 167° South 445 512 39,000  Level Memphis Center
Sun 06:41:44 PM 37.1703 -86.9417 168° South 451 519 39,000  Level Memphis Center
Sun 06:42:44 PM 37.0486 -86.9131 169° South 451 519 39,000  Level Memphis Center
Sun 06:43:44 PM 36.9269 -86.8819 168° South 446 513 39,000  Level Memphis Center
Sun 06:44:44 PM 36.8072 -86.8508 168° South 446 513 39,000  Level Memphis Center
Sun 06:45:44 PM 36.7003 -86.8244 169° South 446 513 39,000  Level Memphis Center
Sun 06:46:44 PM 36.5806 -86.7936 168° South 446 513 39,000  Level Memphis Center
Sun 06:47:44 PM 36.4608 -86.7600 167° South 446 513 39,000  Level Memphis Center
Sun 06:48:44 PM 36.3203 -86.7328 171° South 452 520 39,000  Level Memphis Center
Sun 06:49:44 PM 36.1983 -86.6997 168° South 452 520 39,000  Level Memphis Center
Sun 06:50:44 PM 36.0861 -86.6406 157° South 442 509 39,000  Level Memphis Center
Sun 06:51:44 PM 35.9875 -86.5475 143° Southeast 443 510 39,000  Level Memphis Center
Sun 06:52:44 PM 35.8867 -86.4547 143° Southeast 443 510 39,000  Level Memphis Center
Sun 06:53:44 PM 35.7878 -86.3622 143° Southeast 450 518 39,000  Level Memphis Center
Sun 06:55:57 PM 35.5892 -86.1789 143° Southeast 450 518 39,000  Level Atlanta Center
Sun 06:56:57 PM 35.4822 -86.0817 143° Southeast 450 518 39,000  Level Atlanta Center
Sun 06:57:57 PM 35.3733 -85.9797 143° Southeast 445 512 39,000  Level Atlanta Center
Sun 06:58:57 PM 35.2744 -85.8933 144° Southeast 445 512 39,000  Level Atlanta Center
Sun 06:59:57 PM 35.1881 -85.8128 143° Southeast 445 512 39,000  Level Atlanta Center
Sun 07:00:57 PM 35.0911 -85.7267 144° Southeast 445 512 39,000  Level Atlanta Center
Sun 07:01:57 PM 34.9942 -85.6411 144° Southeast 445 512 39,000  Level Atlanta Center
Sun 07:02:57 PM 34.8994 -85.5533 143° Southeast 445 512 39,000  Level Atlanta Center
Sun 07:03:57 PM 34.8025 -85.4681 144° Southeast 440 506 39,000  Level Atlanta Center
Sun 07:04:57 PM 34.7072 -85.3831 144° Southeast 435 501 39,000  Level Atlanta Center
Sun 07:05:57 PM 34.6103 -85.2956 143° Southeast 435 501 39,000  Level Atlanta Center
Sun 07:06:57 PM 34.5128 -85.2111 144° Southeast 430 495 39,000  Level Atlanta Center
Sun 07:07:57 PM 34.4219 -85.1242 142° Southeast 425 489 39,000  Level Atlanta Center
Sun 07:08:57 PM 34.3161 -85.0347 145° Southeast 430 495 39,000  Level Atlanta Center
Sun 07:09:57 PM 34.2208 -84.9508 144° Southeast 425 489 39,000  Level Atlanta Center
Sun 07:10:57 PM 34.1256 -84.8669 144° Southeast 425 489 39,000  Level Atlanta Center
Sun 07:11:57 PM 34.0342 -84.7908 145° Southeast 425 489 39,000  Level Atlanta Center
Sun 07:12:57 PM 33.9386 -84.7072 144° Southeast 425 489 39,000  Level Atlanta Center
Sun 07:13:57 PM 33.8306 -84.6239 147° Southeast 425 489 39,000  Level Atlanta Center
Sun 07:14:57 PM 33.7242 -84.5933 167° South 414 476 39,000  Level Atlanta Center
Sun 07:15:57 PM 33.6136 -84.5378 157° South 420 483 39,000  Level Atlanta Center
Sun 07:16:57 PM 33.4908 -84.4822 159° South 431 496 39,000  Level Atlanta Center
Sun 07:17:57 PM 33.3761 -84.4294 159° South 431 496 39,000  Level Atlanta Center
Sun 07:18:57 PM 33.2636 -84.3792 160° South 431 496 39,000  Level Atlanta Center
Sun 07:19:57 PM 33.1511 -84.3267 159° South 436 502 39,000  Level Atlanta Center
Sun 07:20:57 PM 33.0364 -84.2742 159° South 431 496 39,000  Level Atlanta Center
Sun 07:21:57 PM 32.9258 -84.2219 158° South 431 496 39,000  Level Atlanta Center
Sun 07:22:57 PM 32.8131 -84.1722 160° South 431 496 39,000  Level Atlanta Center
Sun 07:23:57 PM 32.7006 -84.1203 159° South 431 496 39,000  Level Atlanta Center
Sun 07:24:57 PM 32.5878 -84.0683 159° South 431 496 39,000  Level Atlanta Center
Sun 07:25:57 PM 32.4750 -84.0192 160° South 431 496 39,000  Level Atlanta Center
Sun 07:26:57 PM 32.3622 -83.9700 160° South 431 496 39,000  Level Atlanta Center
Sun 07:27:57 PM 32.2475 -83.9208 160° South 431 496 39,000  Level Atlanta Center
Sun 07:28:57 PM 32.1325 -83.8697 159° South 431 496 39,000  Level Atlanta Center
Sun 07:29:39 PM 32.0692 -83.8389 158° South 428 493 39,000  Level Jacksonville Center
Sun 07:30:39 PM 31.9525 -83.7886 160° South 434 499 39,000  Level Jacksonville Center
Sun 07:31:39 PM 31.8422 -83.7339 157° South 434 499 39,000  Level Jacksonville Center
Sun 07:32:39 PM 31.7297 -83.6817 158° South 434 499 39,000  Level Jacksonville Center
Sun 07:33:39 PM 31.6006 -83.6342 163° South 434 499 39,000  Level Jacksonville Center
Sun 07:34:39 PM 31.4839 -83.5819 159° South 439 505 39,000  Level Jacksonville Center
Sun 07:35:39 PM 31.3736 -83.5350 160° South 433 498 39,000  Level Jacksonville Center
Sun 07:36:39 PM 31.2631 -83.4856 159° South 433 498 39,000  Level Jacksonville Center
Sun 07:37:39 PM 31.1506 -83.4364 159° South 427 491 39,000  Level Jacksonville Center
Sun 07:38:39 PM 31.0403 -83.3897 160° South 427 491 39,000  Level Jacksonville Center
Sun 07:39:39 PM 30.9256 -83.3406 160° South 427 491 39,000  Level Jacksonville Center
Sun 07:40:39 PM 30.8381 -83.3014 159° South 427 491 39,000  Level Jacksonville Center
Sun 07:41:39 PM 30.7169 -83.2453 158° South 427 491 39,000  Level Jacksonville Center
Sun 07:42:39 PM 30.6086 -83.1894 156° South 432 497 39,000  Level Jacksonville Center
Sun 07:43:39 PM 30.4958 -83.1336 157° South 432 497 39,000  Level Jacksonville Center
Sun 07:44:39 PM 30.3833 -83.0756 156° South 437 503 39,000  Level Jacksonville Center
Sun 07:45:39 PM 30.2728 -83.0225 157° South 437 503 39,000  Level Jacksonville Center
Sun 07:46:39 PM 30.1600 -82.9669 157° South 437 503 39,000  Level Jacksonville Center
Sun 07:47:39 PM 30.0453 -82.9094 157° South 437 503 39,000  Level Jacksonville Center
Sun 07:48:39 PM 29.9303 -82.8542 157° South 443 510 39,000  Level Jacksonville Center
Sun 07:49:39 PM 29.8175 -82.8017 158° South 443 510 39,000  Level Jacksonville Center
Sun 07:50:39 PM 29.7047 -82.7467 157° South 443 510 39,000  Level Jacksonville Center
Sun 07:51:39 PM 29.5919 -82.6894 156° South 443 510 39,000  Level Jacksonville Center
Sun 07:52:39 PM 29.4644 -82.6253 156° South 448 516 39,000  Level Jacksonville Center
Sun 07:53:39 PM 29.3517 -82.5686 156° South 448 516 39,000  Level Jacksonville Center
Sun 07:54:39 PM 29.2389 -82.5142 157° South 443 510 39,000  Level Jacksonville Center
Sun 07:55:39 PM 29.1219 -82.4814 166° South 438 504 39,000  Level Jacksonville Center
Sun 07:56:39 PM 29.0050 -82.4700 175° South 432 497 39,000  Level Jacksonville Center
Sun 07:57:39 PM 28.8858 -82.4586 175° South 426 490 39,000  Level Jacksonville Center
Sun 07:58:39 PM 28.7689 -82.4450 174° South 426 490 39,000  Level Jacksonville Center
Sun 07:59:39 PM 28.6542 -82.4358 176° South 421 484 39,000  Level Jacksonville Center
Sun 08:00:39 PM 28.5350 -82.4247 175° South 421 484 39,000  Level Jacksonville Center
Sun 08:01:39 PM 28.4183 -82.4133 175° South 421 484 39,000  Level Jacksonville Center
Sun 08:02:39 PM 28.3014 -82.4044 176° South 421 484 39,000  Level Jacksonville Center
Sun 08:04:10 PM 28.1339 -82.3842 174° South 427 491 39,000  Level Miami Center
Sun 08:05:10 PM 28.0194 -82.3739 175° South 421 484 39,000  Level Miami Center
Sun 08:06:10 PM 27.9053 -82.3614 174° South 421 484 39,000  Level Miami Center
Sun 08:07:10 PM 27.7889 -82.3508 175° South 421 484 39,000  Level Miami Center
Sun 08:08:10 PM 27.6661 -82.3381 175° South 409 471 39,000  Level Miami Center
Sun 08:09:10 PM 27.5519 -82.3231 173° South 409 471 39,000 -400 Level Miami Center
Sun 08:10:10 PM 27.4436 -82.2667 155° Southeast 421 484 38,200 -1,100 Descending Miami Center
Sun 08:11:10 PM 27.3503 -82.1897 144° Southeast 439 505 36,800 -1,400 Descending Miami Center
Sun 08:12:10 PM 27.2350 -82.0933 143° Southeast 455 524 35,400 -1,300 Descending Miami Center
Sun 08:13:10 PM 27.1317 -82.0069 143° Southeast 471 542 34,200 -1,200 Descending Miami Center
Sun 08:14:10 PM 27.0264 -81.9161 142° Southeast 471 542 33,000 -1,400 Descending Miami Center
Sun 08:15:10 PM 26.9167 -81.8275 144° Southeast 483 556 31,400 -1,450 Descending Miami Center
Sun 08:16:10 PM 26.8131 -81.7394 143° Southeast 483 556 30,100 -1,100 Descending Miami Center
Sun 08:17:10 PM 26.7075 -81.6514 143° Southeast 483 556 29,200 -900 Descending Miami Center
Sun 08:18:10 PM 26.6122 -81.5639 141° Southeast 466 536 28,300 -1,000 Descending Miami Center
Sun 08:19:10 PM 26.5106 -81.4786 143° Southeast 461 531 27,200 -1,700 Descending Miami Center
Sun 08:20:10 PM 26.4089 -81.3958 144° Southeast 461 531 24,900 -2,200 Descending Miami Center
Sun 08:21:10 PM 26.3153 -81.3158 143° Southeast 450 518 22,800 -2,100 Descending Miami Center
Sun 08:22:10 PM 26.2236 -81.2383 143° Southeast 431 496 20,700 -1,850 Descending Miami Center
Sun 08:23:10 PM 26.1522 -81.1778 143° Southeast 418 481 19,100 -2,118 Descending Miami Center
Sun 08:24:09 PM 26.0442 -81.0953 146° Southeast 394 453 16,500 -1,550 Descending Miami Center
Sun 08:25:10 PM 25.9606 -81.0206 141° Southeast 397 457 16,000 -494 Descending Miami Center
Sun 08:25:34 PM 25.9214 -80.9986 153° Southeast 376 433 15,800 -1,300 Descending Miami Center
Sun 08:26:10 PM 25.8833 -80.9442 128° Southeast 385 443 14,700 -1,770 Descending Miami Center
Sun 08:26:35 PM 25.8617 -80.8950 116° Southeast 371 427 14,000 -1,700 Descending Miami Center
Sun 08:27:10 PM 25.8531 -80.8347 99° East 358 412 13,000 -1,574 Descending Miami Center
Sun 08:27:36 PM 25.8500 -80.7861 94° East 356 410 12,400 -1,600 Descending Miami Center
Sun 08:28:10 PM 25.8581 -80.7239 82° East 344 396 11,400 -1,745 Descending Miami Center
Sun 08:28:31 PM 25.8569 -80.6869 92° East 346 398 10,800 -1,400 Descending Miami Center
Sun 08:29:10 PM 25.8608 -80.6203 86° East 339 390 10,000 -689 Descending Miami Center
Sun 08:29:32 PM 25.8492 -80.5853 110° East 340 391 10,100  Climbing Miami Center
Sun 08:30:10 PM 25.8214 -80.5267 118° Southeast 324 373 10,000 -90 Descending Miami Center
Sun 08:30:39 PM 25.7972 -80.4892 126° Southeast 337 388 10,000  Level Miami Center
Sun 08:31:10 PM 25.7794 -80.4469 115° Southeast 324 373 10,000  Level Miami Center
Sun 08:31:40 PM 25.7453 -80.3953 126° Southeast 334 384 10,000 -300 Level Miami Center
Sun 08:32:10 PM 25.7333 -80.3603 111° Southeast 330 380 9,700 -1,672 Descending Miami Center
Sun 08:32:41 PM 25.7033 -80.3133 125° Southeast 287 330 8,300 -2,300 Descending Miami Center
Sun 08:33:10 PM 25.6914 -80.2831 114° Southeast 313 360 7,400 -2,509 Descending Miami Center
Sun 08:33:36 PM 25.6653 -80.2431 126° Southeast 286 329 6,000 -2,581 Descending Miami Center
Sun 08:34:36 PM 25.6272 -80.1706 120° Southeast 279 321 3,700 -1,488 Descending Miami Center
Sun 08:35:37 PM 25.6597 -80.1161 56° Northeast 211 243 3,000 -375 Descending Miami Center
Sun 08:36:44 PM 25.7133 -80.1522 329° Northwest 201 231 2,900 -609 Descending Miami Center
Sun 08:37:45 PM 25.7414 -80.2014 302° West 187 215 1,700 -931 Descending Miami Center
Sun 08:38:40 PM 25.7633 -80.2389 303° West 143 165 1,100 -738 Descending Miami Center
Sun 08:39:47 PM 25.7814 -80.2786 297° West 127 146 200 -806 Descending Miami Center

Login

Don't have an account? Register now (free) for customized features, flight alerts, and more!